createdAt,value
2023-11-05T00:00:00.806Z,0
2023-11-05T00:10:00.719Z,0
2023-11-05T00:20:00.724Z,0
2023-11-05T00:30:00.712Z,0
2023-11-05T00:40:03.366Z,0
2023-11-05T00:50:00.885Z,0
2023-11-05T01:00:00.793Z,0
2023-11-05T01:10:00.720Z,0
2023-11-05T01:20:00.700Z,0
2023-11-05T01:30:00.750Z,0
2023-11-05T01:40:00.827Z,0
2023-11-05T01:50:00.657Z,0
2023-11-05T02:00:00.773Z,0
2023-11-05T02:10:00.742Z,0
2023-11-05T02:20:00.721Z,0
2023-11-05T02:30:00.755Z,0
2023-11-05T02:40:00.705Z,0
2023-11-05T03:00:00.806Z,0
2023-11-05T03:10:00.650Z,0
2023-11-05T03:20:00.667Z,0
2023-11-05T03:30:00.888Z,0
2023-11-05T03:40:00.728Z,0
2023-11-05T03:50:00.672Z,0
2023-11-05T04:00:00.737Z,0
2023-11-05T04:10:00.747Z,0
2023-11-05T04:20:00.713Z,0
2023-11-05T04:30:00.713Z,0
2023-11-05T04:40:00.740Z,0
2023-11-05T04:50:00.626Z,0
2023-11-05T05:00:01.005Z,0
2023-11-05T05:10:00.735Z,0
2023-11-05T05:20:00.677Z,0
2023-11-05T05:30:00.850Z,0
2023-11-05T05:40:00.715Z,0
2023-11-05T05:50:00.653Z,0
2023-11-05T06:00:00.782Z,0
2023-11-05T06:10:00.719Z,4
2023-11-05T06:20:00.704Z,12
2023-11-05T06:30:00.733Z,33
2023-11-05T06:40:00.734Z,80
2023-11-05T06:50:00.718Z,133
2023-11-05T07:00:00.804Z,223
2023-11-05T07:10:00.701Z,223
2023-11-05T07:20:00.699Z,312
2023-11-05T07:30:00.671Z,369
2023-11-05T07:40:00.753Z,639
2023-11-05T07:50:00.684Z,1499
2023-11-05T08:00:00.831Z,1964
2023-11-05T08:10:00.968Z,2151
2023-11-05T08:20:00.730Z,2155
2023-11-05T08:30:00.890Z,2155
2023-11-05T08:40:00.879Z,3110
2023-11-05T08:50:00.800Z,2796
2023-11-05T09:00:00.815Z,1481
2023-11-05T09:10:00.757Z,2180
2023-11-05T09:20:00.755Z,2186
2023-11-05T09:30:00.779Z,4621
2023-11-05T09:40:00.929Z,8694
2023-11-05T09:50:01.564Z,3926
2023-11-05T10:00:00.801Z,1431
2023-11-05T10:10:00.727Z,6561
2023-11-05T10:20:00.720Z,9478
2023-11-05T10:30:00.875Z,7471
2023-11-05T10:40:00.811Z,7325
2023-11-05T10:50:00.818Z,4533
2023-11-05T11:00:00.833Z,2207
2023-11-05T11:10:00.750Z,2465
2023-11-05T11:20:00.818Z,2477
2023-11-05T11:30:00.817Z,2185
2023-11-05T11:40:00.861Z,2180
2023-11-05T11:50:00.786Z,1359
2023-11-05T12:00:00.853Z,2360
2023-11-05T12:10:00.794Z,4324
2023-11-05T12:20:00.753Z,7185
2023-11-05T12:30:01.011Z,10814
2023-11-05T12:40:00.712Z,4686
2023-11-05T12:50:00.773Z,6728
2023-11-05T13:00:00.895Z,5266
2023-11-05T13:10:00.671Z,2226
2023-11-05T13:20:00.805Z,2242
2023-11-05T13:30:00.814Z,2489
2023-11-05T13:40:00.819Z,3503
2023-11-05T13:50:00.695Z,1765
2023-11-05T14:00:00.811Z,524
2023-11-05T14:10:00.734Z,1570
2023-11-05T14:20:00.853Z,2660
2023-11-05T14:30:00.888Z,1418
2023-11-05T14:40:00.395Z,1268
2023-11-05T14:50:00.430Z,1667
2023-11-05T15:00:00.977Z,1219
2023-11-05T15:10:00.391Z,922
2023-11-05T15:20:00.434Z,771
2023-11-05T15:30:00.646Z,379
2023-11-05T15:40:00.401Z,163
2023-11-05T15:50:00.557Z,118
2023-11-05T16:00:00.653Z,57
2023-11-05T16:10:00.459Z,43
2023-11-05T16:20:00.537Z,7
2023-11-05T16:30:00.646Z,7
2023-11-05T16:40:00.372Z,0
2023-11-05T16:50:00.579Z,0
2023-11-05T17:00:00.809Z,0
2023-11-05T17:10:00.360Z,0
2023-11-05T17:20:00.465Z,0
2023-11-05T17:30:00.411Z,0
2023-11-05T17:40:00.425Z,0
2023-11-05T17:50:00.477Z,0
2023-11-05T18:00:00.410Z,0
2023-11-05T18:10:00.416Z,0
2023-11-05T18:20:00.423Z,0
2023-11-05T18:30:00.409Z,0
2023-11-05T18:40:00.416Z,0
2023-11-05T18:50:00.413Z,0
2023-11-05T19:00:00.452Z,0
2023-11-05T19:10:00.386Z,0
2023-11-05T19:20:00.467Z,0
2023-11-05T19:30:00.612Z,0
2023-11-05T19:40:00.491Z,0
2023-11-05T19:50:00.747Z,0
2023-11-05T20:00:00.445Z,0
2023-11-05T20:10:00.500Z,0
2023-11-05T20:20:00.482Z,0
2023-11-05T20:30:00.464Z,0
2023-11-05T20:40:00.367Z,0
2023-11-05T20:50:00.494Z,0
2023-11-05T21:00:00.422Z,0
2023-11-05T21:10:00.403Z,0
2023-11-05T21:20:00.458Z,0
2023-11-05T21:30:00.460Z,0
2023-11-05T21:40:00.458Z,0
2023-11-05T21:50:00.413Z,0
2023-11-05T22:00:00.439Z,0
2023-11-05T22:10:00.419Z,0
2023-11-05T22:20:00.583Z,0
2023-11-05T22:30:00.452Z,0
2023-11-05T22:40:00.530Z,0
2023-11-05T22:50:00.442Z,0
2023-11-05T23:00:00.538Z,0
2023-11-05T23:10:00.385Z,0
2023-11-05T23:20:00.395Z,0
2023-11-05T23:30:00.428Z,0
2023-11-05T23:40:00.374Z,0
2023-11-05T23:50:00.422Z,0
